createdAt,value
2022-07-31T00:04:17.845Z,99938.81
2022-07-31T00:09:53.080Z,99936.41
2022-07-31T00:15:16.848Z,99928.09
2022-07-31T00:20:38.705Z,99928.19
2022-07-31T00:26:00.521Z,99911.91
2022-07-31T00:31:22.372Z,99913.63
2022-07-31T00:36:44.224Z,99909.44
2022-07-31T00:42:06.289Z,99908.91
2022-07-31T00:47:28.207Z,99904.72
2022-07-31T00:52:51.715Z,99913.66
2022-07-31T00:58:13.544Z,99911.66
2022-07-31T01:03:35.420Z,99913.53
2022-07-31T01:08:57.286Z,99902.56
2022-07-31T01:14:24.953Z,99904.97
2022-07-31T01:19:48.643Z,99889.19
2022-07-31T01:25:22.749Z,99882.75
2022-07-31T01:31:10.650Z,99876.81
2022-07-31T01:36:42.040Z,99856.41
2022-07-31T01:42:09.072Z,99854.75
2022-07-31T01:47:32.944Z,99846.84
2022-07-31T01:52:57.500Z,99840.06
2022-07-31T01:58:21.488Z,99842.50
2022-07-31T02:03:45.415Z,99833.69
2022-07-31T02:09:07.945Z,99836.44
2022-07-31T02:14:30.769Z,99832.00
2022-07-31T02:20:00.357Z,99835.09
2022-07-31T02:25:22.745Z,99818.97
2022-07-31T02:30:46.785Z,99824.84
2022-07-31T02:36:10.352Z,99827.19
2022-07-31T02:41:32.278Z,99815.25
2022-07-31T02:46:55.313Z,99813.03
2022-07-31T02:52:17.395Z,99818.16
2022-07-31T02:57:39.335Z,99810.91
2022-07-31T03:03:06.299Z,99808.50
2022-07-31T03:08:28.575Z,99807.81
2022-07-31T03:13:53.818Z,99801.28
2022-07-31T03:19:16.517Z,99795.38
2022-07-31T03:24:38.406Z,99795.72
2022-07-31T03:30:00.317Z,99796.88
2022-07-31T03:35:23.512Z,99790.97
2022-07-31T03:40:45.578Z,99781.38
2022-07-31T03:46:08.152Z,99778.81
2022-07-31T03:51:31.489Z,99763.66
2022-07-31T03:56:56.752Z,99770.81
2022-07-31T04:02:19.125Z,99767.88
2022-07-31T04:07:41.100Z,99767.50
2022-07-31T04:13:04.298Z,99759.50
2022-07-31T04:18:26.120Z,99750.22
2022-07-31T04:23:49.680Z,99743.22
2022-07-31T04:29:12.302Z,99750.03
2022-07-31T04:34:34.179Z,99753.72
2022-07-31T04:39:56.017Z,99751.59
2022-07-31T04:45:18.032Z,99737.72
2022-07-31T04:50:39.880Z,99744.03
2022-07-31T04:56:01.724Z,99749.03
2022-07-31T05:01:23.694Z,99742.41
2022-07-31T05:06:48.049Z,99753.97
2022-07-31T05:12:09.875Z,99751.91
2022-07-31T05:17:31.706Z,99749.91
2022-07-31T05:22:53.559Z,99739.25
2022-07-31T05:28:15.405Z,99753.66
2022-07-31T05:33:39.703Z,99750.97
2022-07-31T05:39:01.752Z,99738.66
2022-07-31T05:44:23.644Z,99736.09
2022-07-31T05:49:45.515Z,99743.06
2022-07-31T05:55:07.788Z,99740.50
2022-07-31T06:00:29.625Z,99746.59
2022-07-31T06:05:51.699Z,99739.38
2022-07-31T06:11:13.565Z,99733.31
2022-07-31T06:16:36.288Z,99728.13
2022-07-31T06:21:58.175Z,99732.72
2022-07-31T06:27:33.408Z,99730.03
2022-07-31T06:32:56.075Z,99739.69
2022-07-31T06:38:17.894Z,99730.66
2022-07-31T06:43:39.700Z,99729.50
2022-07-31T06:49:05.547Z,99738.88
2022-07-31T06:54:30.212Z,99733.25
2022-07-31T06:59:52.014Z,99722.06
2022-07-31T07:05:13.923Z,99722.16
2022-07-31T07:10:35.747Z,99720.66
2022-07-31T07:15:57.805Z,99717.44
2022-07-31T07:21:19.734Z,99718.72
2022-07-31T07:26:41.594Z,99726.94
2022-07-31T07:32:03.946Z,99724.66
2022-07-31T07:37:26.933Z,99718.31
2022-07-31T07:42:48.957Z,99722.13
2022-07-31T07:48:10.799Z,99716.22
2022-07-31T07:53:32.619Z,99725.53
2022-07-31T07:58:54.446Z,99725.09
2022-07-31T08:04:16.275Z,99723.53
2022-07-31T08:09:38.205Z,99718.34
2022-07-31T08:15:00.029Z,99722.19
2022-07-31T08:20:21.989Z,99727.00
2022-07-31T08:25:44.044Z,99725.31
2022-07-31T08:31:06.165Z,99723.94
2022-07-31T08:36:27.999Z,99722.09
2022-07-31T08:41:49.842Z,99719.06
2022-07-31T08:47:15.464Z,99728.34
2022-07-31T08:52:37.670Z,99725.50
2022-07-31T08:57:59.639Z,99725.38
2022-07-31T09:03:21.683Z,99728.22
2022-07-31T09:08:43.536Z,99729.78
2022-07-31T09:14:05.411Z,99729.34
2022-07-31T09:19:56.435Z,99746.44
2022-07-31T09:25:18.288Z,99745.84
2022-07-31T09:30:55.884Z,99744.22
2022-07-31T09:36:23.187Z,99749.13
2022-07-31T09:41:56.524Z,99756.03
2022-07-31T09:47:29.342Z,99752.47
2022-07-31T09:52:59.190Z,99757.44
2022-07-31T09:58:23.436Z,99754.81
2022-07-31T10:03:46.300Z,99753.16
2022-07-31T10:09:09.674Z,99742.38
2022-07-31T10:14:35.185Z,99741.50
2022-07-31T10:20:01.634Z,99763.00
2022-07-31T10:25:28.923Z,99744.16
2022-07-31T10:30:50.916Z,99773.91
2022-07-31T10:36:21.312Z,99767.53
2022-07-31T10:42:05.023Z,99771.78
2022-07-31T10:47:26.920Z,99777.44
2022-07-31T10:52:48.815Z,99773.16
2022-07-31T10:58:11.532Z,99783.03
2022-07-31T11:03:42.388Z,99781.34
2022-07-31T11:09:04.634Z,99784.03
2022-07-31T11:14:36.645Z,99783.03
2022-07-31T11:19:58.564Z,99775.75
2022-07-31T11:25:20.991Z,99796.41
2022-07-31T11:31:07.013Z,99788.78
2022-07-31T11:36:28.927Z,99793.69
2022-07-31T11:41:50.825Z,99795.31
2022-07-31T11:48:09.391Z,99789.44
2022-07-31T11:53:02.706Z,99794.22
2022-07-31T11:58:26.521Z,99790.47
2022-07-31T12:03:49.983Z,99801.88
2022-07-31T12:10:02.291Z,99802.34
2022-07-31T12:14:54.100Z,99812.34
2022-07-31T12:20:29.817Z,99814.78
2022-07-31T12:25:56.666Z,99816.94
2022-07-31T12:31:18.528Z,99820.59
2022-07-31T12:36:40.472Z,99805.88
2022-07-31T12:42:02.454Z,99807.22
2022-07-31T12:47:26.817Z,99809.31
2022-07-31T12:52:48.807Z,99809.88
2022-07-31T12:58:10.676Z,99819.78
2022-07-31T13:03:45.427Z,99820.78
2022-07-31T13:09:08.350Z,99809.78
2022-07-31T13:14:30.147Z,99815.22
2022-07-31T13:19:51.974Z,99821.88
2022-07-31T13:25:13.822Z,99821.06
2022-07-31T13:30:35.696Z,99822.28
2022-07-31T13:35:57.518Z,99825.72
2022-07-31T13:41:19.387Z,99824.59
2022-07-31T13:46:41.272Z,99809.59
2022-07-31T13:52:03.733Z,99830.69
2022-07-31T13:57:25.718Z,99847.03
2022-07-31T14:02:49.115Z,99843.59
2022-07-31T14:08:31.758Z,99844.13
2022-07-31T14:13:52.990Z,99845.56
2022-07-31T14:19:14.800Z,99854.38
2022-07-31T14:24:36.656Z,99850.84
2022-07-31T14:29:58.487Z,99853.56
2022-07-31T14:35:20.538Z,99855.13
2022-07-31T14:40:42.394Z,99869.31
2022-07-31T14:46:06.110Z,99878.72
2022-07-31T14:51:28.689Z,99879.78
2022-07-31T14:57:01.254Z,99878.00
2022-07-31T15:02:24.148Z,99866.50
2022-07-31T15:07:47.179Z,99876.31
2022-07-31T15:13:09.425Z,99865.16
2022-07-31T15:18:31.311Z,99872.66
2022-07-31T15:23:53.130Z,99881.53
2022-07-31T15:29:14.953Z,99885.84
2022-07-31T15:34:36.809Z,99888.06
2022-07-31T15:40:03.025Z,99907.06
2022-07-31T15:45:25.339Z,99900.69
2022-07-31T15:50:47.162Z,99899.50
2022-07-31T15:56:09.054Z,99908.28
2022-07-31T16:01:30.967Z,99913.38
2022-07-31T16:06:52.841Z,99917.88
2022-07-31T16:12:14.679Z,99926.09
2022-07-31T16:17:36.672Z,99927.59
2022-07-31T16:23:00.084Z,99933.84
2022-07-31T16:28:22.030Z,99934.94
2022-07-31T16:33:43.929Z,99943.41
2022-07-31T16:39:20.458Z,99940.28
2022-07-31T16:44:42.693Z,99951.44
2022-07-31T16:50:04.737Z,99959.38
2022-07-31T16:56:01.119Z,99953.88
2022-07-31T17:04:04.703Z,99966.00
2022-07-31T17:09:26.668Z,99977.91
2022-07-31T17:14:48.513Z,99976.13
2022-07-31T17:20:10.833Z,99977.03
2022-07-31T17:25:32.882Z,99972.41
2022-07-31T17:30:54.688Z,99970.31
2022-07-31T17:36:16.517Z,99976.84
2022-07-31T17:41:38.414Z,99981.22
2022-07-31T17:47:00.452Z,99999.81
2022-07-31T17:52:25.655Z,99995.75
2022-07-31T17:57:47.494Z,99993.81
2022-07-31T18:03:09.583Z,100001.44
2022-07-31T18:08:31.531Z,100010.69
2022-07-31T18:13:55.387Z,100022.41
2022-07-31T18:19:17.779Z,100036.84
2022-07-31T18:24:39.726Z,100040.66
2022-07-31T18:30:02.337Z,100038.69
2022-07-31T18:35:25.307Z,100024.47
2022-07-31T18:40:47.191Z,100041.00
2022-07-31T18:46:09.062Z,100058.13
2022-07-31T18:51:30.939Z,100050.53
2022-07-31T18:56:52.807Z,100051.91
2022-07-31T19:02:14.761Z,100056.09
2022-07-31T19:07:36.669Z,100064.47
2022-07-31T19:12:59.201Z,100068.69
2022-07-31T19:18:27.914Z,100065.28
2022-07-31T19:23:50.718Z,100080.78
2022-07-31T19:29:12.574Z,100088.50
2022-07-31T19:34:34.468Z,100085.72
2022-07-31T19:39:56.900Z,100078.06
2022-07-31T19:45:20.407Z,100086.94
2022-07-31T19:50:42.254Z,100087.72
2022-07-31T19:56:04.455Z,100083.75
2022-07-31T20:01:26.287Z,100077.81
2022-07-31T20:06:48.107Z,100074.75
2022-07-31T20:12:10.593Z,100078.63
2022-07-31T20:17:32.487Z,100082.47
2022-07-31T20:22:54.309Z,100086.38
2022-07-31T20:28:16.149Z,100086.00
2022-07-31T20:33:38.066Z,100087.59
2022-07-31T20:38:59.910Z,100088.34
2022-07-31T20:44:21.893Z,100086.47
2022-07-31T20:49:45.160Z,100076.97
2022-07-31T20:55:07.235Z,100081.25
2022-07-31T21:00:29.250Z,100076.44
2022-07-31T21:05:51.090Z,100070.41
2022-07-31T21:11:13.044Z,100089.25
2022-07-31T21:16:34.866Z,100088.31
2022-07-31T21:21:56.691Z,100096.13
2022-07-31T21:27:19.315Z,100093.09
2022-07-31T21:32:41.401Z,100093.75
2022-07-31T21:38:03.569Z,100099.81
2022-07-31T21:43:25.625Z,100092.53
2022-07-31T21:48:48.628Z,100109.00
2022-07-31T21:54:10.476Z,100112.84
2022-07-31T21:59:32.349Z,100109.91
2022-07-31T22:04:54.196Z,100101.19
2022-07-31T22:10:17.891Z,100095.31
2022-07-31T22:15:58.987Z,100094.47
2022-07-31T22:21:22.317Z,100087.50
2022-07-31T22:26:46.038Z,100097.97
2022-07-31T22:32:08.785Z,100088.63
2022-07-31T22:37:31.115Z,100087.88
2022-07-31T22:42:57.524Z,100078.06
2022-07-31T22:48:20.967Z,100089.91
2022-07-31T22:53:43.967Z,100081.16
2022-07-31T22:59:05.826Z,100088.88
2022-07-31T23:04:27.672Z,100092.41
2022-07-31T23:09:49.575Z,100096.59
2022-07-31T23:15:11.565Z,100093.16
2022-07-31T23:20:33.467Z,100092.78
2022-07-31T23:25:55.339Z,100098.19
2022-07-31T23:31:18.242Z,100102.09
2022-07-31T23:36:40.065Z,100102.09
2022-07-31T23:42:02.042Z,100107.97
2022-07-31T23:47:24.003Z,100111.19
2022-07-31T23:53:05.833Z,100106.47
2022-07-31T23:58:27.662Z,100122.72
